createdAt,value
2022-12-11T00:00:24.829Z,34.04
2022-12-11T00:01:30.040Z,35.10
2022-12-11T00:02:16.557Z,33.52
2022-12-11T00:03:03.480Z,33.76
2022-12-11T00:03:50.103Z,33.68
2022-12-11T00:04:36.851Z,34.15
2022-12-11T00:05:23.996Z,34.41
2022-12-11T00:06:13.919Z,33.23
2022-12-11T00:07:02.758Z,36.67
2022-12-11T00:07:49.484Z,37.44
2022-12-11T00:08:36.733Z,35.95
2022-12-11T00:09:23.429Z,35.85
2022-12-11T00:10:10.063Z,36.73
2022-12-11T00:10:56.481Z,35.37
2022-12-11T00:11:42.999Z,32.97
2022-12-11T00:12:30.578Z,36.27
2022-12-11T00:13:17.348Z,36.71
2022-12-11T00:14:03.922Z,37.80
2022-12-11T00:14:50.469Z,36.72
2022-12-11T00:15:38.230Z,36.94
2022-12-11T00:16:27.058Z,40.02
2022-12-11T00:17:13.889Z,37.81
2022-12-11T00:18:00.367Z,35.87
2022-12-11T00:18:47.144Z,38.26
2022-12-11T00:19:34.275Z,39.78
2022-12-11T00:20:21.454Z,41.14
2022-12-11T00:21:12.977Z,39.42
2022-12-11T00:21:59.823Z,40.39
2022-12-11T00:22:46.318Z,41.59
2022-12-11T00:23:36.228Z,41.51
2022-12-11T00:24:22.819Z,40.13
2022-12-11T00:25:12.633Z,42.57
2022-12-11T00:25:59.317Z,43.62
2022-12-11T00:26:47.199Z,41.17
2022-12-11T00:27:34.648Z,42.10
2022-12-11T00:28:21.731Z,39.32
2022-12-11T00:29:14.507Z,38.37
2022-12-11T00:30:01.050Z,38.99
2022-12-11T00:30:48.288Z,40.11
2022-12-11T00:31:35.521Z,40.01
2022-12-11T00:32:22.240Z,40.01
2022-12-11T00:33:10.097Z,40.81
2022-12-11T00:33:56.594Z,39.46
2022-12-11T00:34:43.325Z,38.33
2022-12-11T00:35:32.665Z,38.88
2022-12-11T00:36:25.068Z,39.16
2022-12-11T00:37:11.744Z,39.14
2022-12-11T00:37:58.454Z,39.95
2022-12-11T00:38:44.999Z,40.64
2022-12-11T00:39:31.762Z,38.61
2022-12-11T00:40:18.452Z,41.26
2022-12-11T00:41:07.386Z,42.22
2022-12-11T00:41:54.188Z,44.27
2022-12-11T00:42:42.489Z,44.93
2022-12-11T00:43:29.001Z,43.43
2022-12-11T00:44:18.281Z,44.43
2022-12-11T00:45:08.068Z,44.46
2022-12-11T00:45:54.734Z,46.77
2022-12-11T00:46:41.398Z,46.32
2022-12-11T00:47:27.854Z,44.07
2022-12-11T00:48:14.580Z,44.37
2022-12-11T00:49:01.716Z,44.44
2022-12-11T00:49:50.155Z,46.10
2022-12-11T00:50:38.397Z,46.15
2022-12-11T00:51:26.127Z,48.39
2022-12-11T00:52:12.660Z,52.78
2022-12-11T00:52:59.777Z,52.11
2022-12-11T00:53:46.762Z,50.99
2022-12-11T00:54:34.347Z,50.88
2022-12-11T00:55:20.975Z,51.69
2022-12-11T00:56:16.592Z,50.92
2022-12-11T00:57:03.279Z,58.31
2022-12-11T00:57:51.875Z,58.05
2022-12-11T00:58:43.447Z,57.41
2022-12-11T00:59:30.026Z,52.45
2022-12-11T01:00:16.803Z,52.43
2022-12-11T01:01:10.075Z,50.95
2022-12-11T01:01:56.851Z,48.31
2022-12-11T01:02:43.357Z,50.29
2022-12-11T01:03:30.053Z,51.02
2022-12-11T01:04:17.658Z,58.70
2022-12-11T01:05:07.448Z,58.04
2022-12-11T01:05:54.885Z,56.84
2022-12-11T01:06:41.569Z,57.71
2022-12-11T01:07:28.154Z,56.97
2022-12-11T01:08:15.843Z,58.94
2022-12-11T01:09:20.956Z,58.57
2022-12-11T01:10:26.235Z,56.30
2022-12-11T01:11:15.779Z,59.40
2022-12-11T01:12:02.579Z,56.80
2022-12-11T01:12:50.202Z,57.64
2022-12-11T01:13:37.990Z,58.70
2022-12-11T01:14:24.683Z,57.47
2022-12-11T01:15:12.119Z,57.38
2022-12-11T01:15:59.088Z,54.77
2022-12-11T01:16:45.820Z,53.25
2022-12-11T01:17:32.419Z,60.00
2022-12-11T01:18:19.011Z,58.98
2022-12-11T01:19:05.854Z,58.02
2022-12-11T01:19:54.379Z,56.08
2022-12-11T01:20:43.231Z,56.95
2022-12-11T01:21:29.902Z,61.10
2022-12-11T01:22:16.409Z,60.65
2022-12-11T01:23:03.096Z,58.02
2022-12-11T01:23:50.959Z,61.37
2022-12-11T01:24:38.040Z,62.38
2022-12-11T01:25:28.867Z,60.14
2022-12-11T01:26:15.820Z,57.67
2022-12-11T01:27:02.394Z,59.69
2022-12-11T01:27:51.839Z,57.16
2022-12-11T01:28:39.189Z,58.25
2022-12-11T01:29:28.071Z,60.80
2022-12-11T01:30:14.808Z,60.35
2022-12-11T01:31:01.541Z,61.53
2022-12-11T01:31:48.109Z,62.68
2022-12-11T01:32:35.928Z,61.20
2022-12-11T01:33:22.771Z,62.39
2022-12-11T01:34:10.260Z,62.24
2022-12-11T01:34:56.756Z,59.24
2022-12-11T01:35:43.226Z,57.64
2022-12-11T01:36:29.862Z,58.70
2022-12-11T01:37:16.504Z,56.61
2022-12-11T01:38:05.668Z,55.70
2022-12-11T01:38:54.247Z,58.56
2022-12-11T01:39:40.899Z,60.89
2022-12-11T01:40:27.584Z,60.99
2022-12-11T01:41:15.653Z,55.20
2022-12-11T01:42:06.806Z,59.79
2022-12-11T01:42:53.363Z,62.07
2022-12-11T01:43:59.341Z,65.73
2022-12-11T01:44:45.773Z,62.97
2022-12-11T01:45:52.662Z,58.14
2022-12-11T01:46:39.328Z,59.87
2022-12-11T01:47:26.035Z,59.64
2022-12-11T01:48:18.467Z,58.43
2022-12-11T01:49:12.935Z,59.08
2022-12-11T01:49:59.828Z,60.67
2022-12-11T01:50:55.124Z,63.20
2022-12-11T01:51:50.217Z,64.54
2022-12-11T01:52:36.856Z,57.92
2022-12-11T01:53:39.326Z,55.99
2022-12-11T01:54:29.041Z,54.78
2022-12-11T01:55:17.873Z,54.98
2022-12-11T01:56:06.786Z,60.84
2022-12-11T01:56:58.405Z,66.62
2022-12-11T01:57:50.986Z,64.99
2022-12-11T01:58:45.650Z,67.50
2022-12-11T01:59:37.404Z,62.28
2022-12-11T02:00:24.375Z,63.05
2022-12-11T02:01:20.572Z,59.19
2022-12-11T02:02:10.373Z,57.98
2022-12-11T02:02:57.142Z,59.93
2022-12-11T02:03:44.133Z,61.40
2022-12-11T02:04:33.141Z,63.86
2022-12-11T02:05:19.799Z,63.83
2022-12-11T02:06:06.549Z,58.82
2022-12-11T02:06:53.317Z,61.18
2022-12-11T02:07:54.199Z,58.93
2022-12-11T02:08:40.786Z,59.38
2022-12-11T02:09:32.623Z,57.33
2022-12-11T02:10:19.643Z,53.69
2022-12-11T02:11:20.222Z,61.10
2022-12-11T02:12:15.876Z,59.89
2022-12-11T02:13:19.019Z,57.93
2022-12-11T02:14:17.500Z,57.01
2022-12-11T02:15:41.125Z,60.54
2022-12-11T02:16:45.674Z,60.53
2022-12-11T02:18:04.804Z,53.98
2022-12-11T02:18:57.205Z,53.45
2022-12-11T02:20:06.017Z,53.13
2022-12-11T02:21:13.075Z,54.33
2022-12-11T02:22:13.096Z,51.67
2022-12-11T02:23:02.481Z,53.30
2022-12-11T02:24:13.006Z,51.24
2022-12-11T02:25:17.511Z,49.11
2022-12-11T02:26:34.728Z,48.58
2022-12-11T02:27:50.403Z,44.87
2022-12-11T02:28:48.979Z,45.24
2022-12-11T02:29:59.213Z,46.23
2022-12-11T02:30:54.499Z,45.36
2022-12-11T02:31:53.636Z,46.17
2022-12-11T02:33:01.332Z,47.51
2022-12-11T02:34:03.061Z,44.42
2022-12-11T02:35:03.273Z,46.26
2022-12-11T02:35:53.963Z,49.44
2022-12-11T02:36:48.901Z,52.59
2022-12-11T02:37:41.151Z,51.84
2022-12-11T02:38:39.319Z,45.82
2022-12-11T02:39:29.308Z,43.26
2022-12-11T02:40:26.401Z,48.52
2022-12-11T02:41:13.393Z,45.80
2022-12-11T02:42:03.898Z,46.42
2022-12-11T02:42:53.268Z,43.99
2022-12-11T02:43:43.311Z,43.42
2022-12-11T02:44:34.363Z,43.66
2022-12-11T02:45:24.257Z,45.75
2022-12-11T02:46:12.437Z,43.71
2022-12-11T02:47:01.107Z,45.65
2022-12-11T02:47:50.389Z,46.65
2022-12-11T02:48:38.033Z,49.40
2022-12-11T02:49:28.012Z,50.55
2022-12-11T02:50:20.032Z,45.37
2022-12-11T02:51:10.889Z,43.96
2022-12-11T02:52:03.345Z,43.34
2022-12-11T02:52:57.724Z,43.74
2022-12-11T02:53:47.275Z,45.67
2022-12-11T02:54:40.370Z,42.16
2022-12-11T02:55:32.387Z,42.13
2022-12-11T02:56:30.906Z,42.38
2022-12-11T02:57:28.713Z,42.64
2022-12-11T02:58:21.878Z,44.41
2022-12-11T02:59:24.506Z,45.57
2022-12-11T03:00:11.845Z,47.14
2022-12-11T03:01:01.912Z,42.78
2022-12-11T03:01:51.545Z,42.57
2022-12-11T03:02:42.196Z,43.90
2022-12-11T03:03:30.655Z,45.31
2022-12-11T03:04:17.614Z,44.97
2022-12-11T03:05:08.580Z,44.80
2022-12-11T03:05:57.285Z,45.35
2022-12-11T03:06:51.432Z,46.80
2022-12-11T03:07:41.172Z,46.69
2022-12-11T03:08:28.062Z,47.00
2022-12-11T03:09:14.973Z,47.88
2022-12-11T03:10:01.603Z,48.52
2022-12-11T03:10:49.423Z,47.18
2022-12-11T03:11:36.082Z,44.39
2022-12-11T03:12:31.350Z,44.70
2022-12-11T03:13:22.401Z,43.00
2022-12-11T03:14:09.699Z,42.58
2022-12-11T03:15:03.333Z,45.11
2022-12-11T03:16:11.820Z,49.24
2022-12-11T03:17:10.952Z,49.38
2022-12-11T03:18:18.996Z,48.51
2022-12-11T03:19:27.713Z,51.34
2022-12-11T03:20:41.613Z,48.69
2022-12-11T03:21:40.784Z,47.86
2022-12-11T03:22:43.808Z,51.34
2022-12-11T03:23:52.718Z,49.09
2022-12-11T03:24:53.178Z,48.32
2022-12-11T03:25:58.205Z,47.28
2022-12-11T03:26:56.635Z,50.55
2022-12-11T03:27:48.710Z,48.34
2022-12-11T03:28:49.523Z,47.68
2022-12-11T03:29:42.596Z,51.24
2022-12-11T03:30:35.414Z,51.56
2022-12-11T03:31:27.779Z,54.29
2022-12-11T03:32:23.012Z,54.08
2022-12-11T03:33:25.915Z,54.70
2022-12-11T03:34:28.472Z,53.41
2022-12-11T03:35:29.726Z,51.73
2022-12-11T03:36:27.308Z,50.92
2022-12-11T03:37:16.637Z,47.33
2022-12-11T03:38:21.106Z,48.09
2022-12-11T03:39:15.308Z,51.43
2022-12-11T03:40:10.607Z,52.40
2022-12-11T03:41:02.232Z,52.01
2022-12-11T03:41:52.669Z,54.32
2022-12-11T03:42:43.542Z,51.24
2022-12-11T03:43:32.401Z,46.10
2022-12-11T03:44:22.009Z,48.06
2022-12-11T03:45:13.454Z,51.64
2022-12-11T03:46:01.910Z,55.74
2022-12-11T03:46:52.436Z,52.02
2022-12-11T03:47:42.308Z,55.19
2022-12-11T03:48:35.925Z,57.52
2022-12-11T03:49:29.146Z,57.06
2022-12-11T03:50:21.044Z,57.90
2022-12-11T03:51:08.911Z,55.01
2022-12-11T03:51:59.901Z,56.58
2022-12-11T03:52:48.263Z,58.68
2022-12-11T03:53:37.326Z,60.35
2022-12-11T03:54:25.192Z,56.97
2022-12-11T03:55:15.011Z,55.06
2022-12-11T03:56:04.566Z,52.12
2022-12-11T03:56:56.883Z,56.06
2022-12-11T03:57:44.136Z,61.17
2022-12-11T03:58:30.670Z,60.76
2022-12-11T03:59:17.536Z,57.33
2022-12-11T04:00:07.308Z,53.11
2022-12-11T04:00:58.325Z,55.49
2022-12-11T04:01:44.927Z,54.92
2022-12-11T04:02:31.773Z,57.40
2022-12-11T04:03:18.552Z,57.55
2022-12-11T04:04:05.253Z,58.49
2022-12-11T04:04:52.119Z,56.13
2022-12-11T04:05:40.363Z,59.46
2022-12-11T04:06:27.036Z,60.46
2022-12-11T04:07:13.688Z,57.54
2022-12-11T04:08:03.204Z,56.27
2022-12-11T04:08:49.774Z,53.79
2022-12-11T04:09:36.670Z,51.66
2022-12-11T04:10:23.403Z,55.45
2022-12-11T04:11:28.924Z,55.26
2022-12-11T04:12:15.416Z,54.26
2022-12-11T04:13:02.029Z,55.24
2022-12-11T04:14:11.697Z,55.32
2022-12-11T04:15:04.186Z,55.59
2022-12-11T04:15:50.967Z,53.07
2022-12-11T04:16:37.916Z,59.58
2022-12-11T04:17:43.366Z,60.52
2022-12-11T04:18:48.614Z,59.31
2022-12-11T04:19:53.984Z,58.19
2022-12-11T04:20:58.868Z,57.38
2022-12-11T04:22:03.928Z,49.82
2022-12-11T04:23:08.725Z,54.54
2022-12-11T04:24:13.978Z,57.34
2022-12-11T04:25:02.238Z,51.52
2022-12-11T04:25:48.868Z,53.25
2022-12-11T04:26:35.525Z,56.33
2022-12-11T04:27:41.746Z,54.82
2022-12-11T04:28:28.239Z,52.73
2022-12-11T04:29:15.311Z,51.14
2022-12-11T04:30:03.702Z,52.20
2022-12-11T04:30:50.485Z,54.62
2022-12-11T04:31:36.990Z,53.00
2022-12-11T04:32:23.705Z,49.49
2022-12-11T04:33:10.175Z,55.53
2022-12-11T04:33:56.612Z,56.65
2022-12-11T04:34:43.127Z,53.45
2022-12-11T04:35:33.212Z,51.79
2022-12-11T04:36:19.689Z,52.73
2022-12-11T04:37:06.175Z,51.96
2022-12-11T04:37:52.914Z,50.93
2022-12-11T04:38:40.199Z,52.40
2022-12-11T04:39:26.685Z,51.91
2022-12-11T04:40:17.567Z,52.80
2022-12-11T04:41:10.274Z,53.91
2022-12-11T04:41:56.997Z,49.73
2022-12-11T04:42:43.751Z,53.07
2022-12-11T04:43:30.293Z,53.74
2022-12-11T04:44:16.780Z,50.83
2022-12-11T04:45:04.555Z,50.24
2022-12-11T04:45:51.149Z,48.35
2022-12-11T04:46:37.932Z,51.19
2022-12-11T04:47:24.404Z,49.56
2022-12-11T04:48:13.251Z,46.57
2022-12-11T04:49:00.253Z,47.52
2022-12-11T04:49:46.889Z,50.83
2022-12-11T04:50:33.382Z,52.90
2022-12-11T04:51:20.088Z,49.37
2022-12-11T04:52:06.784Z,49.12
2022-12-11T04:52:57.326Z,45.93
2022-12-11T04:53:45.257Z,46.36
2022-12-11T04:54:32.980Z,49.66
2022-12-11T04:55:19.407Z,48.69
2022-12-11T04:56:12.270Z,49.05
2022-12-11T04:56:58.785Z,45.83
2022-12-11T04:57:45.630Z,42.18
2022-12-11T04:58:32.132Z,44.91
2022-12-11T04:59:18.727Z,43.03
2022-12-11T05:00:07.963Z,43.63
2022-12-11T05:00:54.647Z,45.38
2022-12-11T05:01:42.515Z,43.36
2022-12-11T05:02:29.409Z,42.42
2022-12-11T05:03:16.627Z,42.76
2022-12-11T05:04:03.436Z,43.18
2022-12-11T05:04:50.820Z,47.54
2022-12-11T05:05:37.629Z,47.36
2022-12-11T05:06:24.198Z,43.42
2022-12-11T05:07:10.903Z,43.27
2022-12-11T05:07:57.445Z,41.90
2022-12-11T05:08:45.520Z,39.68
2022-12-11T05:09:32.119Z,40.25
2022-12-11T05:10:18.607Z,42.29
2022-12-11T05:11:08.183Z,41.59
2022-12-11T05:11:54.702Z,39.22
2022-12-11T05:12:41.452Z,42.39
2022-12-11T05:13:29.919Z,46.32
2022-12-11T05:14:16.599Z,44.28
2022-12-11T05:15:03.643Z,40.21
2022-12-11T05:15:50.308Z,41.42
2022-12-11T05:16:36.956Z,41.94
2022-12-11T05:17:24.082Z,40.58
2022-12-11T05:18:10.507Z,38.68
2022-12-11T05:18:57.105Z,36.93
2022-12-11T05:19:43.762Z,37.92
2022-12-11T05:20:30.305Z,36.62
2022-12-11T05:21:16.979Z,38.81
2022-12-11T05:22:03.459Z,38.96
2022-12-11T05:22:50.001Z,39.59
2022-12-11T05:23:37.736Z,40.36
2022-12-11T05:24:24.314Z,35.96
2022-12-11T05:25:11.280Z,37.10
2022-12-11T05:26:01.999Z,35.48
2022-12-11T05:26:50.912Z,37.59
2022-12-11T05:27:37.541Z,39.11
2022-12-11T05:28:25.698Z,39.55
2022-12-11T05:29:12.209Z,41.19
2022-12-11T05:29:59.653Z,38.63
2022-12-11T05:30:46.252Z,38.89
2022-12-11T05:31:33.157Z,38.85
2022-12-11T05:32:19.751Z,38.61
2022-12-11T05:33:06.213Z,41.57
2022-12-11T05:33:53.834Z,43.06
2022-12-11T05:34:40.329Z,43.45
2022-12-11T05:35:26.809Z,40.25
2022-12-11T05:36:31.896Z,40.60
2022-12-11T05:37:18.768Z,41.96
2022-12-11T05:38:05.275Z,40.77
2022-12-11T05:38:52.916Z,41.07
2022-12-11T05:39:39.474Z,41.90
2022-12-11T05:40:26.057Z,41.76
2022-12-11T05:41:15.752Z,38.85
2022-12-11T05:42:02.213Z,42.10
2022-12-11T05:42:48.970Z,40.51
2022-12-11T05:43:36.993Z,38.05
2022-12-11T05:44:23.516Z,39.79
2022-12-11T05:45:12.788Z,40.75
2022-12-11T05:46:17.439Z,38.55
2022-12-11T05:47:03.993Z,42.45
2022-12-11T05:47:50.746Z,42.92
2022-12-11T05:48:38.820Z,41.67
2022-12-11T05:49:30.629Z,40.23
2022-12-11T05:50:17.686Z,39.62
2022-12-11T05:51:06.125Z,39.65
2022-12-11T05:51:52.663Z,40.38
2022-12-11T05:52:39.142Z,39.99
2022-12-11T05:53:26.082Z,39.99
2022-12-11T05:54:12.848Z,39.65
2022-12-11T05:54:59.301Z,40.36
2022-12-11T05:55:46.236Z,38.03
2022-12-11T05:56:35.558Z,36.15
2022-12-11T05:57:22.217Z,38.42
2022-12-11T05:58:08.715Z,41.38
2022-12-11T05:58:56.450Z,42.29
2022-12-11T05:59:45.168Z,42.23
2022-12-11T06:00:36.041Z,42.11
2022-12-11T06:01:36.966Z,42.77
2022-12-11T06:02:23.714Z,41.75
2022-12-11T06:03:10.545Z,43.47
2022-12-11T06:03:59.453Z,40.89
2022-12-11T06:04:46.147Z,40.81
2022-12-11T06:05:32.669Z,42.04
2022-12-11T06:06:19.201Z,41.75
2022-12-11T06:07:05.679Z,38.75
2022-12-11T06:07:52.403Z,36.86
2022-12-11T06:08:42.140Z,35.41
2022-12-11T06:09:28.815Z,34.80
2022-12-11T06:10:15.577Z,37.54
2022-12-11T06:11:02.890Z,40.34
2022-12-11T06:11:49.449Z,37.32
2022-12-11T06:12:36.177Z,37.65
2022-12-11T06:13:23.144Z,36.10
2022-12-11T06:14:13.573Z,34.49
2022-12-11T06:15:00.251Z,39.49
2022-12-11T06:15:47.100Z,41.46
2022-12-11T06:16:34.252Z,38.69
2022-12-11T06:17:20.990Z,40.94
2022-12-11T06:18:07.669Z,40.62
2022-12-11T06:18:58.036Z,37.55
2022-12-11T06:19:45.130Z,36.64
2022-12-11T06:20:33.509Z,37.26
2022-12-11T06:21:23.523Z,37.39
2022-12-11T06:22:10.049Z,39.09
2022-12-11T06:22:56.494Z,36.99
2022-12-11T06:23:45.916Z,33.59
2022-12-11T06:24:32.468Z,35.20
2022-12-11T06:25:24.082Z,35.47
2022-12-11T06:26:11.547Z,38.15
2022-12-11T06:26:58.299Z,36.87
2022-12-11T06:27:44.826Z,33.92
2022-12-11T06:28:34.145Z,34.87
2022-12-11T06:29:23.568Z,34.94
2022-12-11T06:30:10.562Z,37.45
2022-12-11T06:31:01.595Z,37.12
2022-12-11T06:31:48.882Z,34.67
2022-12-11T06:32:35.495Z,33.21
2022-12-11T06:33:23.340Z,33.74
2022-12-11T06:34:13.022Z,34.75
2022-12-11T06:34:59.983Z,34.21
2022-12-11T06:35:46.614Z,33.00
2022-12-11T06:36:33.300Z,35.86
2022-12-11T06:37:19.771Z,37.38
2022-12-11T06:38:06.274Z,36.58
2022-12-11T06:38:55.018Z,34.32
2022-12-11T06:39:41.471Z,35.01
2022-12-11T06:40:27.884Z,33.40
2022-12-11T06:41:15.014Z,34.51
2022-12-11T06:42:01.480Z,36.47
2022-12-11T06:42:48.019Z,34.11
2022-12-11T06:43:36.943Z,33.41
2022-12-11T06:44:24.842Z,37.58
2022-12-11T06:45:11.591Z,38.46
2022-12-11T06:46:03.588Z,38.51
2022-12-11T06:46:50.778Z,34.72
2022-12-11T06:47:37.302Z,34.79
2022-12-11T06:48:23.861Z,35.32
2022-12-11T06:49:13.313Z,33.52
2022-12-11T06:50:00.155Z,35.82
2022-12-11T06:50:47.184Z,36.39
2022-12-11T06:51:33.660Z,35.39
2022-12-11T06:52:22.475Z,33.45
2022-12-11T06:53:11.281Z,33.66
2022-12-11T06:53:57.884Z,34.77
2022-12-11T06:54:44.613Z,34.40
2022-12-11T06:55:31.235Z,35.67
2022-12-11T06:56:18.043Z,37.11
2022-12-11T06:57:06.383Z,39.06
2022-12-11T06:57:53.318Z,39.41
2022-12-11T06:58:42.172Z,37.57
2022-12-11T06:59:28.805Z,35.92
2022-12-11T07:00:16.739Z,35.45
2022-12-11T07:01:04.803Z,36.31
2022-12-11T07:01:51.760Z,37.98
2022-12-11T07:02:38.509Z,36.46
2022-12-11T07:03:25.216Z,36.59
2022-12-11T07:04:11.760Z,35.68
2022-12-11T07:04:58.274Z,36.58
2022-12-11T07:05:44.749Z,37.26
2022-12-11T07:06:31.225Z,37.08
2022-12-11T07:07:20.640Z,35.93
2022-12-11T07:08:08.555Z,35.08
2022-12-11T07:08:56.005Z,35.87
2022-12-11T07:09:44.992Z,36.07
2022-12-11T07:10:32.845Z,33.67
2022-12-11T07:11:20.756Z,33.39
2022-12-11T07:12:07.544Z,31.24
2022-12-11T07:12:55.775Z,34.11
2022-12-11T07:13:42.811Z,36.40
2022-12-11T07:14:30.461Z,33.47
2022-12-11T07:15:19.430Z,32.69
2022-12-11T07:16:10.607Z,30.33
2022-12-11T07:16:59.983Z,28.59
2022-12-11T07:17:46.899Z,27.68
2022-12-11T07:18:33.375Z,25.68
2022-12-11T07:19:20.091Z,27.54
2022-12-11T07:20:07.369Z,29.71
2022-12-11T07:20:54.097Z,30.00
2022-12-11T07:21:40.805Z,27.49
2022-12-11T07:22:29.105Z,27.84
2022-12-11T07:23:15.767Z,28.97
2022-12-11T07:24:02.322Z,29.47
2022-12-11T07:24:49.825Z,29.12
2022-12-11T07:25:37.320Z,27.86
2022-12-11T07:26:23.906Z,28.09
2022-12-11T07:27:10.434Z,26.02
2022-12-11T07:27:58.041Z,26.48
2022-12-11T07:28:45.924Z,26.08
2022-12-11T07:29:32.459Z,24.39
2022-12-11T07:30:19.321Z,24.01
2022-12-11T07:31:13.713Z,24.06
2022-12-11T07:32:00.275Z,25.21
2022-12-11T07:32:47.064Z,24.25
2022-12-11T07:33:34.131Z,26.60
2022-12-11T07:34:20.816Z,26.78
2022-12-11T07:35:07.791Z,26.24
2022-12-11T07:35:54.414Z,27.47
2022-12-11T07:36:41.347Z,28.45
2022-12-11T07:37:27.978Z,28.83
2022-12-11T07:38:17.156Z,28.10
2022-12-11T07:39:07.727Z,27.92
2022-12-11T07:39:54.494Z,27.96
2022-12-11T07:40:43.451Z,29.20
2022-12-11T07:41:31.777Z,27.56
2022-12-11T07:42:21.628Z,27.27
2022-12-11T07:43:08.319Z,26.54
2022-12-11T07:43:56.388Z,24.42
2022-12-11T07:44:42.958Z,26.00
2022-12-11T07:45:32.127Z,25.88
2022-12-11T07:46:24.589Z,27.19
2022-12-11T07:47:13.610Z,26.10
2022-12-11T07:48:00.203Z,23.74
2022-12-11T07:48:48.292Z,23.73
2022-12-11T07:49:35.020Z,24.76
2022-12-11T07:50:24.063Z,24.53
2022-12-11T07:51:16.861Z,24.97
2022-12-11T07:52:03.994Z,25.03
2022-12-11T07:52:50.734Z,25.64
2022-12-11T07:53:37.497Z,27.80
2022-12-11T07:54:23.962Z,26.79
2022-12-11T07:55:11.223Z,25.32
2022-12-11T07:56:02.449Z,24.56
2022-12-11T07:56:53.468Z,25.02
2022-12-11T07:57:40.801Z,25.15
2022-12-11T07:58:30.405Z,25.39
2022-12-11T07:59:17.058Z,26.18
2022-12-11T08:00:05.100Z,25.68
2022-12-11T08:00:59.276Z,25.48
2022-12-11T08:01:47.051Z,25.78
2022-12-11T08:02:37.225Z,24.71
2022-12-11T08:03:24.968Z,25.26
2022-12-11T08:04:12.794Z,25.63
2022-12-11T08:04:59.365Z,24.15
2022-12-11T08:05:50.119Z,25.35
2022-12-11T08:06:41.686Z,25.31
2022-12-11T08:07:28.439Z,24.89
2022-12-11T08:08:18.165Z,24.57
2022-12-11T08:09:08.320Z,25.03
2022-12-11T08:09:54.782Z,25.33
2022-12-11T08:10:41.650Z,24.53
2022-12-11T08:11:28.267Z,23.49
2022-12-11T08:12:17.129Z,23.30
2022-12-11T08:13:04.233Z,25.08
2022-12-11T08:13:50.773Z,25.72
2022-12-11T08:14:38.769Z,24.15
2022-12-11T08:15:25.575Z,25.03
2022-12-11T08:16:14.472Z,25.61
2022-12-11T08:17:03.660Z,24.03
2022-12-11T08:17:50.201Z,24.98
2022-12-11T08:18:37.540Z,25.45
2022-12-11T08:19:24.174Z,23.37
2022-12-11T08:20:11.194Z,23.45
2022-12-11T08:20:57.681Z,23.41
2022-12-11T08:21:46.825Z,24.23
2022-12-11T08:22:34.534Z,24.60
2022-12-11T08:23:21.109Z,24.53
2022-12-11T08:24:09.376Z,25.17
2022-12-11T08:24:55.938Z,25.00
2022-12-11T08:25:42.535Z,25.63
2022-12-11T08:26:31.580Z,25.10
2022-12-11T08:27:18.169Z,25.25
2022-12-11T08:28:06.336Z,26.00
2022-12-11T08:28:55.384Z,26.17
2022-12-11T08:29:42.013Z,27.78
2022-12-11T08:30:28.792Z,28.62
2022-12-11T08:31:17.996Z,28.41
2022-12-11T08:32:12.031Z,25.91
2022-12-11T08:32:59.788Z,25.78
2022-12-11T08:33:47.905Z,26.60
2022-12-11T08:34:34.796Z,26.85
2022-12-11T08:35:24.981Z,27.39
2022-12-11T08:36:14.722Z,26.01
2022-12-11T08:37:01.243Z,25.10
2022-12-11T08:37:47.969Z,24.42
2022-12-11T08:38:34.959Z,25.00
2022-12-11T08:39:21.527Z,25.51
2022-12-11T08:40:10.792Z,26.45
2022-12-11T08:40:58.439Z,27.58
2022-12-11T08:41:45.058Z,28.73
2022-12-11T08:42:31.786Z,28.70
2022-12-11T08:43:20.978Z,26.97
2022-12-11T08:44:16.292Z,27.64
2022-12-11T08:45:03.641Z,28.94
2022-12-11T08:45:50.651Z,30.63
2022-12-11T08:46:38.603Z,30.09
2022-12-11T08:47:27.862Z,29.38
2022-12-11T08:48:14.872Z,32.14
2022-12-11T08:49:01.589Z,30.57
2022-12-11T08:49:48.465Z,30.76
2022-12-11T08:50:35.057Z,31.06
2022-12-11T08:51:24.398Z,30.00
2022-12-11T08:52:10.918Z,31.19
2022-12-11T08:52:57.763Z,34.70
2022-12-11T08:53:44.582Z,33.87
2022-12-11T08:54:37.229Z,33.59
2022-12-11T08:55:23.870Z,33.62
2022-12-11T08:56:16.195Z,34.32
2022-12-11T08:57:05.918Z,32.51
2022-12-11T08:57:55.411Z,31.33
2022-12-11T08:58:43.547Z,31.90
2022-12-11T08:59:30.165Z,33.68
2022-12-11T09:00:18.667Z,35.19
2022-12-11T09:01:14.379Z,35.89
2022-12-11T09:02:01.812Z,38.87
2022-12-11T09:02:48.794Z,36.45
2022-12-11T09:03:36.934Z,36.60
2022-12-11T09:04:23.580Z,35.30
2022-12-11T09:05:10.989Z,34.82
2022-12-11T09:05:57.724Z,35.37
2022-12-11T09:06:44.156Z,37.69
2022-12-11T09:07:30.647Z,35.30
2022-12-11T09:08:17.407Z,37.17
2022-12-11T09:09:04.523Z,36.69
2022-12-11T09:09:51.155Z,37.24
2022-12-11T09:10:37.676Z,37.55
2022-12-11T09:11:27.721Z,37.86
2022-12-11T09:12:14.998Z,36.79
2022-12-11T09:13:01.685Z,36.48
2022-12-11T09:13:51.251Z,37.84
2022-12-11T09:14:38.187Z,35.97
2022-12-11T09:15:25.084Z,36.45
2022-12-11T09:16:18.723Z,38.22
2022-12-11T09:17:05.477Z,34.13
2022-12-11T09:17:52.301Z,33.47
2022-12-11T09:18:40.596Z,33.55
2022-12-11T09:19:32.066Z,34.14
2022-12-11T09:20:18.924Z,32.59
2022-12-11T09:21:13.945Z,33.37
2022-12-11T09:22:00.652Z,34.14
2022-12-11T09:22:47.405Z,30.99
2022-12-11T09:23:35.078Z,29.70
2022-12-11T09:24:21.655Z,29.25
2022-12-11T09:25:09.726Z,28.57
2022-12-11T09:25:59.395Z,28.67
2022-12-11T09:26:48.255Z,28.90
2022-12-11T09:27:35.557Z,29.06
2022-12-11T09:28:23.155Z,28.51
2022-12-11T09:29:12.904Z,27.96
2022-12-11T09:29:59.426Z,29.39
2022-12-11T09:30:46.512Z,30.06
2022-12-11T09:31:36.315Z,28.97
2022-12-11T09:32:22.938Z,28.97
2022-12-11T09:33:09.488Z,27.64
2022-12-11T09:33:59.722Z,28.56
2022-12-11T09:34:46.300Z,28.83
2022-12-11T09:35:35.853Z,29.43
2022-12-11T09:36:23.109Z,27.73
2022-12-11T09:37:09.932Z,29.62
2022-12-11T09:37:56.645Z,31.09
2022-12-11T09:38:47.113Z,30.90
2022-12-11T09:39:33.838Z,28.90
2022-12-11T09:40:23.446Z,30.01
2022-12-11T09:41:22.172Z,37.14
2022-12-11T09:42:19.511Z,37.91
2022-12-11T09:43:38.107Z,35.69
2022-12-11T09:44:42.035Z,36.89
2022-12-11T09:45:29.399Z,39.62
2022-12-11T09:46:17.888Z,37.67
2022-12-11T09:47:21.101Z,37.81
2022-12-11T09:48:13.257Z,37.07
2022-12-11T09:49:05.545Z,40.70
2022-12-11T09:50:06.546Z,39.52
2022-12-11T09:50:55.866Z,40.21
2022-12-11T09:51:50.827Z,45.06
2022-12-11T09:52:55.161Z,46.11
2022-12-11T09:53:41.856Z,42.73
2022-12-11T09:54:32.570Z,44.30
2022-12-11T09:55:24.628Z,47.45
2022-12-11T09:56:26.618Z,44.01
2022-12-11T09:57:31.669Z,46.79
2022-12-11T09:58:53.352Z,43.55
2022-12-11T10:00:13.893Z,44.57
2022-12-11T10:01:36.096Z,41.29
2022-12-11T10:02:30.663Z,42.98
2022-12-11T10:03:40.010Z,41.29
2022-12-11T10:04:47.357Z,41.37
2022-12-11T10:06:01.045Z,42.44
2022-12-11T10:07:05.179Z,43.50
2022-12-11T10:08:04.054Z,43.88
2022-12-11T10:09:01.420Z,42.62
2022-12-11T10:10:06.426Z,41.78
2022-12-11T10:11:20.716Z,42.35
2022-12-11T10:12:42.497Z,43.16
2022-12-11T10:14:16.859Z,46.62
2022-12-11T10:15:47.690Z,42.72
2022-12-11T10:16:43.602Z,45.07
2022-12-11T10:17:37.237Z,43.61
2022-12-11T10:18:27.752Z,41.46
2022-12-11T10:19:28.752Z,43.71
2022-12-11T10:20:22.832Z,45.87
2022-12-11T10:21:11.760Z,43.72
2022-12-11T10:22:01.078Z,44.44
2022-12-11T10:22:52.009Z,45.25
2022-12-11T10:23:46.279Z,42.86
2022-12-11T10:25:11.560Z,45.08
2022-12-11T10:26:06.804Z,45.16
2022-12-11T10:27:01.481Z,45.23
2022-12-11T10:27:48.232Z,43.81
2022-12-11T10:28:35.980Z,45.43
2022-12-11T10:29:22.667Z,44.99
2022-12-11T10:30:34.222Z,42.92
2022-12-11T10:31:46.649Z,45.75
2022-12-11T10:32:48.561Z,43.29
2022-12-11T10:33:59.640Z,41.08
2022-12-11T10:34:55.992Z,45.26
2022-12-11T10:35:50.326Z,43.19
2022-12-11T10:36:39.845Z,38.50
2022-12-11T10:37:26.612Z,36.74
2022-12-11T10:38:31.569Z,38.93
2022-12-11T10:39:21.158Z,41.26
2022-12-11T10:40:11.605Z,41.43
2022-12-11T10:41:01.671Z,42.08
2022-12-11T10:41:54.197Z,40.33
2022-12-11T10:42:52.314Z,39.78
2022-12-11T10:43:43.660Z,40.77
2022-12-11T10:44:31.549Z,42.04
2022-12-11T10:45:19.709Z,41.55
2022-12-11T10:46:15.914Z,42.25
2022-12-11T10:47:12.726Z,42.88
2022-12-11T10:48:05.335Z,44.26
2022-12-11T10:49:03.049Z,46.92
2022-12-11T10:50:04.043Z,47.16